Time;durP1;ratioP1;P1;durP2;ratioP2;P2;SDS_P1;SDS_P2;PMS_P1;PMS_P2;Temp;Humidity;BMP_temperature;BMP_pressure;BME280_temperature;BME280_humidity;BME280_pressure;Samples;Min_cycle;Max_cycle;Signal;HPM_P1;HPM_P2
2022/05/24 00:01:05;;;;;;;1.87;1.67;;;27.10;69.80;;;;;;5072741;28;20790;-83
2022/05/24 00:03:32;;;;;;;2.90;1.67;;;27.10;69.70;;;;;;5075254;28;20452;-83
2022/05/24 00:05:59;;;;;;;2.40;2.20;;;27.10;69.70;;;;;;5074028;28;20437;-83
2022/05/24 00:08:27;;;;;;;2.20;1.90;;;27.10;69.50;;;;;;5074158;28;20441;-84
2022/05/24 00:10:54;;;;;;;2.70;2.23;;;27.10;69.40;;;;;;5073907;28;20456;-84
2022/05/24 00:13:21;;;;;;;1.97;1.77;;;27.20;69.60;;;;;;5085095;28;20533;-83
2022/05/24 00:15:48;;;;;;;2.07;1.87;;;27.10;69.40;;;;;;5094211;28;20444;-83
2022/05/24 00:18:18;;;;;;;1.70;1.60;;;27.10;69.40;;;;;;5094079;28;20483;-83
2022/05/24 00:20:48;;;;;;;1.80;1.70;;;27.10;69.30;;;;;;5094030;28;20440;-83
2022/05/24 00:23:15;;;;;;;2.37;1.87;;;27.10;69.30;;;;;;5091979;28;20471;-84
2022/05/24 00:25:46;;;;;;;2.10;1.87;;;27.10;69.30;;;;;;5094082;28;20822;-84
2022/05/24 00:28:15;;;;;;;2.10;1.90;;;27.10;69.30;;;;;;5093498;28;20938;-83
2022/05/24 00:30:42;;;;;;;2.80;2.00;;;27.10;69.20;;;;;;5093973;28;20432;-83
2022/05/24 00:33:09;;;;;;;2.33;2.13;;;27.10;69.30;;;;;;5092484;28;20440;-85
2022/05/24 00:35:36;;;;;;;1.73;1.63;;;27.10;69.20;;;;;;5076548;28;20441;-84
2022/05/24 00:38:03;;;;;;;1.80;1.70;;;27.10;69.20;;;;;;5073460;28;20473;-83
2022/05/24 00:40:43;;;;;;;2.73;1.80;;;27.10;69.20;;;;;;5073491;28;20811;-83
2022/05/24 00:43:16;;;;;;;1.97;1.77;;;27.10;69.20;;;;;;5086216;28;20435;-83
2022/05/24 00:45:47;;;;;;;2.10;1.90;;;27.10;69.10;;;;;;5093875;28;20451;-84
2022/05/24 00:48:21;;;;;;;1.60;1.50;;;27.10;69.20;;;;;;5093715;28;20466;-83
2022/05/24 00:50:51;;;;;;;1.93;1.80;;;27.10;69.20;;;;;;5076413;28;20444;-83
2022/05/24 00:53:26;;;;;;;1.90;1.50;;;27.10;69.20;;;;;;5079321;28;20444;-91
2022/05/24 00:55:59;;;;;;;1.80;1.70;;;27.10;69.20;;;;;;5073661;28;20447;-83
2022/05/24 00:58:38;;;;;;;1.93;1.50;;;27.10;69.20;;;;;;5073509;28;20476;-83
2022/05/24 01:01:16;;;;;;;2.40;2.10;;;27.10;69.10;;;;;;5082365;28;20531;-83
2022/05/24 01:03:43;;;;;;;1.70;1.60;;;27.10;69.20;;;;;;5093873;28;20440;-84
2022/05/24 01:06:09;;;;;;;1.60;1.50;;;27.00;69.00;;;;;;5093724;28;20440;-84
2022/05/24 01:08:36;;;;;;;1.47;1.37;;;27.10;69.00;;;;;;5093308;28;20447;-83
2022/05/24 01:11:04;;;;;;;1.80;1.70;;;27.00;68.90;;;;;;5093040;28;20464;-90
2022/05/24 01:13:32;;;;;;;3.00;1.97;;;27.10;69.10;;;;;;5071879;28;20490;-83
2022/05/24 01:15:59;;;;;;;2.13;2.00;;;27.00;69.10;;;;;;5073238;28;20440;-84
2022/05/24 01:18:26;;;;;;;1.93;1.67;;;27.00;69.00;;;;;;5073185;28;20479;-84
2022/05/24 01:21:01;;;;;;;1.80;1.70;;;27.00;69.00;;;;;;5078471;28;20428;-84
2022/05/24 01:23:44;;;;;;;2.13;2.00;;;27.10;69.10;;;;;;5093176;28;20470;-83
2022/05/24 01:26:16;;;;;;;2.00;1.80;;;27.00;69.00;;;;;;5093506;28;20435;-83
2022/05/24 01:28:50;;;;;;;2.27;1.50;;;27.00;68.90;;;;;;5093458;28;20439;-83
2022/05/24 01:31:17;;;;;;;1.60;1.50;;;27.00;69.00;;;;;;5085943;28;20440;-91
2022/05/24 01:36:32;;;;;;;1.63;1.30;;;27.00;69.10;;;;;;5073089;28;20447;-86
2022/05/24 01:39:02;;;;;;;1.67;1.57;;;27.00;69.00;;;;;;5074032;28;20480;-83
2022/05/24 01:41:34;;;;;;;1.80;1.70;;;27.00;69.10;;;;;;5077061;28;20444;-84
2022/05/24 01:44:04;;;;;;;1.60;1.50;;;27.00;69.00;;;;;;5076879;28;20437;-83
2022/05/24 01:46:35;;;;;;;1.90;1.80;;;27.00;69.00;;;;;;5077025;28;20444;-84
2022/05/24 01:49:07;;;;;;;1.90;1.80;;;27.00;69.00;;;;;;5076778;28;20441;-83
2022/05/24 01:51:39;;;;;;;1.60;1.50;;;27.00;69.00;;;;;;5075562;28;20444;-90
2022/05/24 01:54:08;;;;;;;2.13;1.50;;;27.00;69.00;;;;;;5088964;28;20493;-84
2022/05/24 01:56:41;;;;;;;1.43;1.33;;;27.10;69.10;;;;;;5096901;28;20965;-87
2022/05/24 01:59:10;;;;;;;2.90;1.60;;;27.10;69.00;;;;;;5092236;28;20511;-83
2022/05/24 02:01:44;;;;;;;2.13;1.80;;;27.00;69.00;;;;;;5076231;28;21024;-84
2022/05/24 02:04:11;;;;;;;1.70;1.60;;;27.00;69.00;;;;;;5076393;28;20938;-84
2022/05/24 02:06:38;;;;;;;2.57;1.70;;;27.00;69.00;;;;;;5076585;28;20441;-84
2022/05/24 02:09:07;;;;;;;1.97;1.77;;;27.00;68.90;;;;;;5076918;28;20467;-83
2022/05/24 02:11:36;;;;;;;2.13;1.40;;;27.00;68.90;;;;;;5076496;28;20440;-83
2022/05/24 02:14:09;;;;;;;1.70;1.20;;;27.00;68.90;;;;;;5076283;28;20444;-85
2022/05/24 02:16:43;;;;;;;2.10;1.90;;;27.00;68.90;;;;;;5076213;28;20451;-83
2022/05/24 02:19:12;;;;;;;1.60;1.50;;;27.00;68.80;;;;;;5076164;28;20576;-85
2022/05/24 02:21:41;;;;;;;1.50;1.40;;;27.00;68.80;;;;;;5076031;28;20478;-88
2022/05/24 02:24:18;;;;;;;1.67;1.57;;;26.90;68.70;;;;;;5076008;28;20472;-83
2022/05/24 02:26:45;;;;;;;1.80;1.70;;;27.00;68.80;;;;;;5076123;28;20448;-83
2022/05/24 02:29:12;;;;;;;2.30;1.37;;;26.90;68.80;;;;;;5075980;28;20557;-83
2022/05/24 02:31:40;;;;;;;1.60;1.50;;;27.00;68.80;;;;;;5076140;28;20960;-92
2022/05/24 02:34:07;;;;;;;1.37;1.27;;;27.00;68.80;;;;;;5075984;28;20782;-83
2022/05/24 02:36:34;;;;;;;2.13;1.40;;;26.90;68.70;;;;;;5075903;28;20440;-83
2022/05/24 02:39:01;;;;;;;1.60;1.33;;;26.90;68.70;;;;;;5075703;28;20480;-84
2022/05/24 02:41:31;;;;;;;1.67;1.50;;;26.90;68.70;;;;;;5075774;28;20443;-86
2022/05/24 02:43:59;;;;;;;1.73;1.60;;;26.90;68.70;;;;;;5075808;28;20950;-84
2022/05/24 02:46:26;;;;;;;1.80;1.70;;;26.90;68.70;;;;;;5075708;28;20437;-83
2022/05/24 02:48:56;;;;;;;1.80;1.70;;;26.90;68.70;;;;;;5075517;28;20939;-83
2022/05/24 02:51:25;;;;;;;1.77;1.50;;;26.90;68.70;;;;;;5073484;28;20449;-83
2022/05/24 02:53:53;;;;;;;1.23;1.13;;;26.90;68.70;;;;;;5075556;28;20445;-84
2022/05/24 02:56:20;;;;;;;1.40;1.30;;;26.90;68.70;;;;;;5075625;28;20439;-83
2022/05/24 02:58:47;;;;;;;1.60;1.50;;;26.90;68.60;;;;;;5075540;28;20898;-84
2022/05/24 03:01:18;;;;;;;1.90;1.80;;;26.90;68.70;;;;;;5075352;28;20441;-84
2022/05/24 03:03:45;;;;;;;1.40;1.30;;;26.90;68.70;;;;;;5075824;28;20817;-83
2022/05/24 03:06:13;;;;;;;2.00;1.80;;;26.90;68.60;;;;;;5075444;28;20538;-83
2022/05/24 03:11:24;;;;;;;1.43;1.33;;;26.90;68.70;;;;;;5075045;28;20579;-84
2022/05/24 03:16:52;;;;;;;1.70;1.60;;;26.90;68.70;;;;;;5033142;28;20438;-83
2022/05/24 03:19:20;;;;;;;1.90;1.80;;;26.90;68.70;;;;;;5033049;28;21032;-83
2022/05/24 03:21:49;;;;;;;1.70;1.60;;;26.90;68.70;;;;;;5052423;28;20536;-83
2022/05/24 03:24:15;;;;;;;1.60;1.43;;;26.90;68.60;;;;;;5074722;28;20967;-83
2022/05/24 03:26:42;;;;;;;2.70;1.50;;;26.90;68.60;;;;;;5075375;28;20456;-84
2022/05/24 03:29:09;;;;;;;1.70;1.60;;;26.90;68.60;;;;;;5073720;28;20805;-83
2022/05/24 03:31:36;;;;;;;2.00;1.43;;;26.90;68.50;;;;;;5075007;28;20437;-83
2022/05/24 03:34:03;;;;;;;1.50;1.40;;;26.90;68.50;;;;;;5073516;28;20440;-83
2022/05/24 03:36:30;;;;;;;1.33;1.23;;;26.90;68.50;;;;;;5074586;28;20447;-88
2022/05/24 03:38:58;;;;;;;1.80;1.60;;;26.90;68.50;;;;;;5074515;28;20908;-83
2022/05/24 03:41:25;;;;;;;1.30;1.20;;;26.90;68.50;;;;;;5074639;28;20920;-84
2022/05/24 03:43:53;;;;;;;1.63;1.27;;;26.90;68.50;;;;;;5074496;28;20463;-83
2022/05/24 03:46:19;;;;;;;1.43;1.33;;;26.90;68.50;;;;;;5074522;28;20444;-83
2022/05/24 03:48:46;;;;;;;1.60;1.20;;;26.90;68.50;;;;;;5093995;28;20440;-84
2022/05/24 03:51:13;;;;;;;1.40;1.30;;;26.90;68.40;;;;;;5094542;28;20927;-83
2022/05/24 03:53:40;;;;;;;1.70;1.20;;;26.90;68.40;;;;;;5093500;28;20436;-83
2022/05/24 03:56:08;;;;;;;1.47;1.37;;;26.90;68.40;;;;;;5094532;28;20428;-83
2022/05/24 03:58:35;;;;;;;1.37;1.27;;;26.90;68.40;;;;;;5093873;28;20436;-89
2022/05/24 04:01:02;;;;;;;1.83;1.40;;;26.90;68.40;;;;;;5094595;28;20443;-83
2022/05/24 04:03:29;;;;;;;1.50;1.40;;;26.90;68.40;;;;;;5093417;28;20493;-83
2022/05/24 04:05:55;;;;;;;1.70;1.50;;;26.90;68.30;;;;;;5094495;28;20813;-82
2022/05/24 04:08:26;;;;;;;1.63;1.53;;;26.90;68.30;;;;;;5093903;28;20436;-83
2022/05/24 04:11:00;;;;;;;1.50;1.10;;;26.90;68.20;;;;;;5088323;28;20515;-87
2022/05/24 04:13:28;;;;;;;1.47;1.37;;;26.90;68.30;;;;;;5086010;28;20436;-89
2022/05/24 04:15:55;;;;;;;1.50;1.40;;;26.90;68.30;;;;;;5088325;28;20794;-91
2022/05/24 04:18:22;;;;;;;2.10;1.20;;;26.90;68.20;;;;;;5074293;28;20449;-90
2022/05/24 04:20:49;;;;;;;1.37;1.27;;;26.90;68.20;;;;;;5073776;28;20484;-90
2022/05/24 04:23:17;;;;;;;1.40;1.20;;;26.90;69.00;;;;;;5075795;28;21040;-87
2022/05/24 04:25:44;;;;;;;1.30;1.20;;;26.90;68.10;;;;;;5088111;28;20448;-83
2022/05/24 04:28:11;;;;;;;1.30;1.00;;;26.90;68.00;;;;;;5073646;28;20796;-83
2022/05/24 04:30:39;;;;;;;1.30;1.20;;;26.90;68.00;;;;;;5088924;28;20444;-84
2022/05/24 04:33:06;;;;;;;1.10;1.00;;;27.00;68.10;;;;;;5094090;28;20469;-83
2022/05/24 04:35:33;;;;;;;3.80;2.60;;;26.90;68.00;;;;;;5093916;28;20436;-83
2022/05/24 04:38:01;;;;;;;5.60;2.60;;;26.70;65.30;;;;;;5093956;28;20474;-84
2022/05/24 04:43:10;;;;;;;3.93;2.23;;;26.40;64.40;;;;;;5094316;28;20452;-92
2022/05/24 04:45:39;;;;;;;4.00;1.93;;;26.20;64.30;;;;;;5084846;28;20437;-86
2022/05/24 04:48:06;;;;;;;5.37;2.90;;;25.90;64.40;;;;;;5073568;28;20441;-86
2022/05/24 04:50:34;;;;;;;6.00;2.50;;;25.90;64.50;;;;;;5073989;28;20795;-86
2022/05/24 04:53:01;;;;;;;3.27;2.83;;;25.80;64.40;;;;;;5073863;28;20444;-85
2022/05/24 04:55:28;;;;;;;5.37;3.10;;;25.80;64.60;;;;;;5092570;28;20428;-83
2022/05/24 04:57:55;;;;;;;4.07;2.43;;;25.70;64.60;;;;;;5093397;28;20439;-81
2022/05/24 05:00:23;;;;;;;3.20;2.37;;;25.80;64.70;;;;;;5093790;28;20479;-86
2022/05/24 05:02:52;;;;;;;4.40;2.37;;;25.60;64.80;;;;;;5093746;28;20848;-89
2022/05/24 05:05:19;;;;;;;3.80;2.20;;;25.50;64.90;;;;;;5094048;28;20455;-87
2022/05/24 05:07:46;;;;;;;4.03;2.40;;;25.50;64.80;;;;;;5093648;28;20858;-87
2022/05/24 05:10:14;;;;;;;4.03;2.43;;;25.70;64.90;;;;;;5093321;28;20474;-87
2022/05/24 05:12:41;;;;;;;2.53;1.73;;;25.50;64.70;;;;;;5093600;28;20440;-87
2022/05/24 05:15:08;;;;;;;6.17;2.60;;;25.60;64.50;;;;;;5078100;28;20441;-88
2022/05/24 05:17:35;;;;;;;3.60;2.40;;;25.70;64.60;;;;;;5077426;28;21031;-86
2022/05/24 05:20:05;;;;;;;2.70;1.60;;;25.80;65.30;;;;;;5077333;28;20559;-87
2022/05/24 05:22:31;;;;;;;1.70;1.53;;;25.90;65.90;;;;;;5076949;28;20469;-87
2022/05/24 05:24:58;;;;;;;3.00;1.47;;;26.00;66.30;;;;;;5077506;28;20492;-86
2022/05/24 05:27:25;;;;;;;1.67;1.40;;;26.00;66.60;;;;;;5077549;28;20435;-87
2022/05/24 05:32:36;;;;;;;5.23;1.80;;;26.10;66.90;;;;;;5097547;28;20985;-86
2022/05/24 05:35:07;;;;;;;1.70;1.40;;;26.10;67.00;;;;;;5097209;28;20440;-86
2022/05/24 05:37:34;;;;;;;1.63;1.53;;;26.20;67.00;;;;;;5097182;28;20440;-86
2022/05/24 05:40:03;;;;;;;1.83;1.70;;;26.20;67.10;;;;;;5097054;28;20487;-86
2022/05/24 05:42:30;;;;;;;8.00;2.10;;;26.20;67.00;;;;;;5084693;28;20449;-83
2022/05/24 05:44:57;;;;;;;1.83;1.33;;;26.30;67.10;;;;;;5076828;28;20473;-84
2022/05/24 05:47:24;;;;;;;1.93;1.50;;;26.30;66.90;;;;;;5076770;28;20445;-82
2022/05/24 05:49:50;;;;;;;3.70;2.20;;;26.40;66.90;;;;;;5076775;28;20457;-82
2022/05/24 05:52:19;;;;;;;1.70;1.40;;;26.40;66.70;;;;;;5076544;28;20461;-82
2022/05/24 05:54:46;;;;;;;1.80;1.70;;;26.50;66.80;;;;;;5076811;28;20454;-84
2022/05/24 05:57:13;;;;;;;2.90;1.47;;;26.50;66.80;;;;;;5081649;28;20846;-84
2022/05/24 05:59:40;;;;;;;2.23;1.40;;;26.50;66.90;;;;;;5076264;28;20495;-85
2022/05/24 06:02:08;;;;;;;1.60;1.50;;;26.50;66.80;;;;;;5076754;28;20487;-82
2022/05/24 06:04:35;;;;;;;2.00;1.80;;;26.50;66.80;;;;;;5076776;28;20440;-86
2022/05/24 06:07:02;;;;;;;2.10;1.80;;;26.50;66.80;;;;;;5076297;28;20467;-87
2022/05/24 06:09:30;;;;;;;1.70;1.53;;;26.50;66.80;;;;;;5076226;28;20464;-82
2022/05/24 06:11:57;;;;;;;2.07;1.30;;;26.50;66.80;;;;;;5076139;28;20441;-89
2022/05/24 06:14:24;;;;;;;2.07;1.87;;;26.50;66.60;;;;;;5076520;28;20532;-89
2022/05/24 06:16:51;;;;;;;1.50;1.40;;;26.50;66.70;;;;;;5078242;28;20464;-87
2022/05/24 06:19:18;;;;;;;1.50;1.40;;;26.50;66.70;;;;;;5082957;28;20534;-88
2022/05/24 06:21:45;;;;;;;2.73;1.30;;;26.50;66.60;;;;;;5088023;28;20451;-86
2022/05/24 06:24:13;;;;;;;1.40;1.30;;;26.60;66.70;;;;;;5095876;28;20517;-84
2022/05/24 06:26:41;;;;;;;1.97;1.60;;;26.60;67.50;;;;;;5094802;28;20444;-87
2022/05/24 06:29:09;;;;;;;2.33;1.40;;;26.60;66.60;;;;;;5096002;28;20451;-83
2022/05/24 06:31:36;;;;;;;1.50;1.30;;;26.60;66.70;;;;;;5095783;28;20453;-83
2022/05/24 06:34:03;;;;;;;2.60;1.33;;;26.60;66.60;;;;;;5095693;28;20451;-81
2022/05/24 06:36:31;;;;;;;1.50;1.40;;;26.60;66.60;;;;;;5095721;28;20447;-88
2022/05/24 06:38:57;;;;;;;1.80;1.60;;;26.60;66.60;;;;;;5096369;28;20468;-87
2022/05/24 06:41:24;;;;;;;1.80;1.17;;;26.60;66.50;;;;;;5095600;28;20570;-91
2022/05/24 06:43:52;;;;;;;1.60;1.40;;;26.60;66.50;;;;;;5095969;28;20923;-82
2022/05/24 06:46:19;;;;;;;1.70;1.57;;;26.60;66.40;;;;;;5094727;28;21056;-81
2022/05/24 06:48:46;;;;;;;1.70;1.53;;;26.60;66.40;;;;;;5095621;28;20440;-82
2022/05/24 06:51:17;;;;;;;6.10;1.60;;;26.60;66.40;;;;;;5095554;28;20957;-82
2022/05/24 06:53:46;;;;;;;1.60;1.20;;;26.70;66.40;;;;;;5095476;28;20442;-82
2022/05/24 06:56:13;;;;;;;1.30;1.10;;;26.60;66.40;;;;;;5095410;28;20439;-81
2022/05/24 06:58:40;;;;;;;1.50;1.30;;;26.60;66.40;;;;;;5095072;28;20442;-81
2022/05/24 07:03:55;;;;;;;1.60;1.30;;;26.70;66.40;;;;;;5094393;28;20929;-81
2022/05/24 07:06:22;;;;;;;2.23;1.37;;;26.60;66.40;;;;;;5094410;28;20470;-82
2022/05/24 07:08:50;;;;;;;1.47;1.37;;;26.60;66.40;;;;;;5094129;28;20463;-82
2022/05/24 07:11:19;;;;;;;1.47;1.13;;;26.60;66.30;;;;;;5094354;28;20565;-82
2022/05/24 07:13:46;;;;;;;1.40;1.20;;;26.60;66.40;;;;;;5094878;28;20534;-82
2022/05/24 07:16:14;;;;;;;1.30;1.20;;;26.60;66.40;;;;;;5095389;28;20789;-83
2022/05/24 07:18:41;;;;;;;1.20;1.10;;;26.60;66.30;;;;;;5095427;28;20478;-82
2022/05/24 07:21:08;;;;;;;1.70;1.13;;;26.60;66.20;;;;;;5095116;28;20498;-81
2022/05/24 07:23:37;;;;;;;1.37;1.23;;;26.60;66.20;;;;;;5094800;28;20474;-86
2022/05/24 07:26:14;;;;;;;1.60;1.50;;;26.60;66.20;;;;;;5095333;28;20923;-91
2022/05/24 07:28:40;;;;;;;1.33;1.17;;;26.70;66.20;;;;;;5074741;28;20449;-89
2022/05/24 07:31:07;;;;;;;1.33;1.10;;;26.60;66.20;;;;;;5075003;28;20445;-88
2022/05/24 07:33:36;;;;;;;4.37;1.87;;;26.70;66.30;;;;;;5074628;28;20437;-88
2022/05/24 07:36:04;;;;;;;1.33;1.23;;;26.70;66.30;;;;;;5074709;28;20947;-89
2022/05/24 07:38:31;;;;;;;1.47;1.10;;;26.50;66.10;;;;;;5074338;28;20940;-88
2022/05/24 07:46:27;;;;;;;1.30;1.10;;;26.70;66.30;;;;;;5074593;28;20416;-90
2022/05/24 07:48:55;;;;;;;1.23;1.00;;;26.60;66.20;;;;;;5075043;28;20805;-93
2022/05/24 07:51:23;;;;;;;1.93;1.30;;;26.70;66.30;;;;;;5074530;28;21245;-89
2022/05/24 07:53:50;;;;;;;1.10;1.00;;;26.70;66.20;;;;;;5074146;28;20519;-90
2022/05/24 07:56:18;;;;;;;1.40;1.17;;;26.70;66.10;;;;;;5074943;28;20793;-89
2022/05/24 07:58:46;;;;;;;1.50;1.07;;;26.70;66.10;;;;;;5074384;28;20441;-86
2022/05/24 08:01:15;;;;;;;1.27;1.00;;;26.70;66.10;;;;;;5073887;28;20488;-85
2022/05/24 08:03:41;;;;;;;1.20;1.10;;;26.70;66.00;;;;;;5074067;28;20447;-88
2022/05/24 08:06:10;;;;;;;1.57;1.43;;;26.70;65.90;;;;;;5074198;28;20793;-86
2022/05/24 08:08:37;;;;;;;2.70;1.37;;;26.70;65.70;;;;;;5073975;28;20471;-88
2022/05/24 08:11:04;;;;;;;1.17;0.97;;;26.70;65.70;;;;;;5074034;28;20931;-88
2022/05/24 08:13:31;;;;;;;1.67;1.23;;;26.70;65.60;;;;;;5074153;28;20445;-88
2022/05/24 08:15:58;;;;;;;1.60;1.00;;;26.80;65.70;;;;;;5074232;28;20441;-87
2022/05/24 08:18:25;;;;;;;1.13;1.03;;;26.80;65.70;;;;;;5073937;28;20463;-89
2022/05/24 08:20:53;;;;;;;1.87;1.30;;;26.80;65.70;;;;;;5073823;28;21028;-90
2022/05/24 08:23:23;;;;;;;1.40;1.13;;;26.80;65.70;;;;;;5073663;28;20553;-90
2022/05/24 08:25:50;;;;;;;1.30;1.20;;;26.80;65.70;;;;;;5073713;28;20476;-87
2022/05/24 08:28:16;;;;;;;1.57;1.20;;;26.80;65.70;;;;;;5073834;28;20441;-91
2022/05/24 08:30:44;;;;;;;1.20;1.10;;;26.80;65.70;;;;;;5083631;28;20972;-92
2022/05/24 08:33:12;;;;;;;1.10;1.00;;;26.80;65.70;;;;;;5075563;28;20845;-95
2022/05/24 08:35:39;;;;;;;1.30;1.00;;;26.90;65.80;;;;;;5074314;28;20478;-87
2022/05/24 08:38:07;;;;;;;1.30;1.10;;;26.90;66.70;;;;;;5073375;28;20771;-85
2022/05/24 08:40:38;;;;;;;1.00;0.90;;;26.90;65.90;;;;;;5073355;28;20477;-87
2022/05/24 08:43:17;;;;;;;1.60;1.03;;;26.90;65.90;;;;;;5073275;28;20449;-90
2022/05/24 08:48:41;;;;;;;1.20;1.10;;;26.90;65.90;;;;;;5072973;28;20409;-88
2022/05/24 08:51:14;;;;;;;1.10;1.00;;;26.90;66.00;;;;;;5073127;28;20876;-88
2022/05/24 08:53:45;;;;;;;1.30;1.20;;;26.90;66.00;;;;;;5073656;28;20440;-90
2022/05/24 08:56:17;;;;;;;1.30;0.90;;;26.90;66.00;;;;;;5073098;28;20445;-87
2022/05/24 08:58:48;;;;;;;1.27;0.90;;;27.00;66.10;;;;;;5073291;28;20963;-90
2022/05/24 09:01:19;;;;;;;1.40;0.93;;;27.00;66.00;;;;;;5073630;28;20488;-95
2022/05/24 09:03:46;;;;;;;1.20;1.07;;;27.00;66.00;;;;;;5075740;28;20444;-96
2022/05/24 09:06:26;;;;;;;1.27;1.13;;;27.00;66.00;;;;;;5074425;28;20451;-83
2022/05/24 09:09:13;;;;;;;1.10;1.00;;;27.00;66.00;;;;;;5073573;28;20463;-91
2022/05/24 09:12:00;;;;;;;1.20;1.07;;;27.00;66.00;;;;;;5073330;28;20429;-92
2022/05/24 09:14:34;;;;;;;1.70;1.10;;;27.00;66.00;;;;;;5073518;28;20433;-90
2022/05/24 09:17:11;;;;;;;1.10;0.90;;;27.00;66.10;;;;;;5073276;28;20445;-88
2022/05/24 09:19:42;;;;;;;1.27;1.17;;;27.00;66.10;;;;;;5074412;28;20449;-89
2022/05/24 09:22:11;;;;;;;1.10;1.00;;;27.00;66.10;;;;;;5072758;28;20567;-90
2022/05/24 09:24:44;;;;;;;1.40;1.30;;;27.00;66.10;;;;;;5072934;28;20437;-87
2022/05/24 09:27:16;;;;;;;1.60;0.90;;;26.90;66.00;;;;;;5072806;28;20451;-87
2022/05/24 09:30:03;;;;;;;1.20;1.10;;;26.90;66.10;;;;;;5072912;28;20439;-88
2022/05/24 09:32:36;;;;;;;1.23;1.00;;;26.90;65.90;;;;;;5072776;28;20441;-86
2022/05/24 09:35:23;;;;;;;1.50;1.10;;;26.90;66.00;;;;;;5073032;28;20437;-84
2022/05/24 09:38:08;;;;;;;1.20;1.00;;;26.90;65.90;;;;;;5072747;28;20448;-93
2022/05/24 09:40:47;;;;;;;1.00;0.80;;;26.90;66.00;;;;;;5072946;28;20475;-90
2022/05/24 09:43:26;;;;;;;1.30;1.00;;;27.00;66.10;;;;;;5075428;28;20485;-85
2022/05/24 09:45:59;;;;;;;1.40;1.10;;;26.90;66.00;;;;;;5072419;28;20445;-88
2022/05/24 09:48:28;;;;;;;1.43;0.90;;;26.90;66.00;;;;;;5072660;28;20506;-88
2022/05/24 09:50:57;;;;;;;1.77;1.10;;;26.90;65.90;;;;;;5072650;28;20452;-87
2022/05/24 09:53:27;;;;;;;1.70;0.97;;;26.90;65.90;;;;;;5072525;28;20449;-85
2022/05/24 09:55:59;;;;;;;1.20;0.83;;;26.80;65.80;;;;;;5072367;28;20448;-87
2022/05/24 09:58:31;;;;;;;1.20;0.90;;;26.90;65.90;;;;;;5072134;28;20437;-83
2022/05/24 10:01:02;;;;;;;1.20;0.93;;;26.90;65.90;;;;;;5074914;28;21030;-88
2022/05/24 10:03:33;;;;;;;1.50;1.10;;;26.90;65.90;;;;;;5076204;28;20483;-86
2022/05/24 10:06:15;;;;;;;1.07;0.90;;;26.80;65.80;;;;;;5076650;28;20951;-85
2022/05/24 10:08:46;;;;;;;1.20;1.00;;;26.90;65.80;;;;;;5076071;28;20464;-85
2022/05/24 10:11:23;;;;;;;1.30;1.03;;;26.90;65.90;;;;;;5075853;28;20448;-83
2022/05/24 10:14:07;;;;;;;1.30;0.90;;;26.90;65.90;;;;;;5094113;28;20452;-84
2022/05/24 10:16:39;;;;;;;1.10;0.90;;;27.00;65.90;;;;;;5096185;28;20446;-83
2022/05/24 10:19:26;;;;;;;1.40;1.00;;;26.90;65.90;;;;;;5096576;28;20515;-89
2022/05/24 10:25:18;;;;;;;1.50;1.10;;;27.00;65.90;;;;;;5025688;28;20454;-89
2022/05/24 10:31:15;;;;;;;2.07;1.00;;;27.00;66.00;;;;;;5019155;28;20406;-93
2022/05/24 10:39:50;;;;;;;1.13;0.90;;;27.00;66.10;;;;;;5016990;28;20459;-84
2022/05/24 10:42:29;;;;;;;1.33;1.00;;;27.10;66.10;;;;;;5017633;28;20487;-89
2022/05/24 10:45:01;;;;;;;1.20;1.10;;;27.10;66.00;;;;;;5010826;28;20456;-84
2022/05/24 10:47:35;;;;;;;1.10;0.90;;;27.10;66.10;;;;;;5023975;28;20442;-84
2022/05/24 10:50:08;;;;;;;1.23;1.10;;;27.10;66.20;;;;;;5015720;28;20443;-84
2022/05/24 10:52:39;;;;;;;1.30;0.80;;;27.10;64.90;;;;;;5015404;28;20530;-84
2022/05/24 10:55:13;;;;;;;1.00;0.80;;;27.10;64.90;;;;;;4998060;28;20447;-84
2022/05/24 10:57:43;;;;;;;1.00;0.80;;;27.20;64.60;;;;;;5016239;28;20431;-84
2022/05/24 11:00:14;;;;;;;1.10;0.90;;;27.20;64.80;;;;;;4998595;28;20456;-84
2022/05/24 11:02:49;;;;;;;1.13;0.90;;;27.20;64.60;;;;;;5035371;28;20506;-83
2022/05/24 11:05:23;;;;;;;1.93;1.17;;;27.00;64.30;;;;;;5034748;28;20457;-90
2022/05/24 11:08:06;;;;;;;1.00;0.87;;;27.20;65.30;;;;;;5035832;28;20446;-90
2022/05/24 11:10:55;;;;;;;1.10;1.00;;;27.20;65.60;;;;;;5035430;28;20443;-90
2022/05/24 11:38:43;;;;;;;1.33;0.80;;;27.20;66.10;;;;;;5014686;28;20427;-87
2022/05/24 11:41:26;;;;;;;1.00;0.80;;;27.20;66.10;;;;;;4997405;28;20483;-84
2022/05/24 11:44:27;;;;;;;1.13;1.00;;;27.20;66.10;;;;;;5015064;28;20447;-84
2022/05/24 11:46:56;;;;;;;0.97;0.77;;;27.30;66.10;;;;;;5014076;28;20448;-87
2022/05/24 11:50:05;;;;;;;1.10;0.90;;;27.30;66.10;;;;;;4997567;28;20447;-85
2022/05/24 11:53:04;;;;;;;1.17;0.90;;;27.30;65.90;;;;;;5000052;28;20443;-84
2022/05/24 11:56:14;;;;;;;1.57;1.00;;;27.40;66.00;;;;;;5003360;28;20535;-84
2022/05/24 11:58:58;;;;;;;1.10;0.90;;;27.40;65.80;;;;;;5014732;28;20447;-85
2022/05/24 12:01:48;;;;;;;2.07;0.80;;;27.40;65.90;;;;;;5014533;28;20490;-84
2022/05/24 12:07:55;;;;;;;1.50;1.00;;;27.50;66.60;;;;;;5015044;28;20945;-83
2022/05/24 12:10:53;;;;;;;1.73;1.00;;;27.40;65.80;;;;;;5014469;28;20490;-85
2022/05/24 12:13:31;;;;;;;1.33;0.80;;;27.50;65.70;;;;;;4954102;29;20490;-85
2022/05/24 12:16:03;;;;;;;1.30;0.90;;;27.50;65.70;;;;;;5005853;28;20432;-82
2022/05/24 12:18:41;;;;;;;7.93;1.10;;;27.50;65.70;;;;;;5014433;28;20435;-85
2022/05/24 12:21:09;;;;;;;1.33;0.97;;;27.50;65.20;;;;;;5014129;28;20570;-85
2022/05/24 12:23:43;;;;;;;1.10;0.80;;;27.40;63.00;;;;;;5013653;28;20454;-86
2022/05/24 12:26:13;;;;;;;1.10;0.80;;;27.40;62.70;;;;;;5014454;28;20435;-86
2022/05/24 12:28:50;;;;;;;2.37;0.80;;;27.40;62.40;;;;;;5014310;28;20442;-86
2022/05/24 12:31:32;;;;;;;1.30;1.00;;;27.40;62.40;;;;;;4996402;28;20450;-85
2022/05/24 12:34:00;;;;;;;1.30;1.00;;;27.40;62.50;;;;;;5024645;28;20520;-86
2022/05/24 12:36:31;;;;;;;2.30;1.00;;;27.30;62.40;;;;;;5033749;28;20518;-84
2022/05/24 12:39:03;;;;;;;1.20;0.80;;;27.30;62.40;;;;;;5033726;28;20828;-84
2022/05/24 12:41:33;;;;;;;1.10;0.80;;;27.30;62.40;;;;;;5033473;28;20586;-85
2022/05/24 12:44:04;;;;;;;1.07;0.80;;;27.30;62.40;;;;;;5017911;28;20462;-87
2022/05/24 12:46:35;;;;;;;1.37;0.90;;;27.20;62.20;;;;;;5022226;28;20438;-89
2022/05/24 12:49:07;;;;;;;1.50;0.80;;;27.20;62.30;;;;;;5033797;28;20443;-90
2022/05/24 12:51:34;;;;;;;1.80;1.20;;;27.20;62.50;;;;;;5033038;28;20466;-91
2022/05/24 12:54:21;;;;;;;3.73;0.97;;;27.10;62.60;;;;;;5010181;28;20452;-88
2022/05/24 12:56:56;;;;;;;0.90;0.70;;;27.10;62.60;;;;;;5004327;28;20938;-89
2022/05/24 12:59:35;;;;;;;1.00;0.80;;;27.10;62.90;;;;;;5009539;28;20475;-89
2022/05/24 13:02:17;;;;;;;2.03;0.80;;;27.10;63.30;;;;;;5014540;28;20577;-88
2022/05/24 13:04:45;;;;;;;1.50;0.90;;;27.10;63.30;;;;;;5014347;28;20436;-89
2022/05/24 13:07:31;;;;;;;1.20;0.90;;;27.10;63.60;;;;;;5014770;28;20918;-94
2022/05/24 13:10:25;;;;;;;11.77;1.00;;;27.10;63.50;;;;;;5012180;28;20474;-93
2022/05/24 13:12:55;;;;;;;1.60;1.00;;;27.10;63.60;;;;;;5015190;28;20435;-94
2022/05/24 13:15:24;;;;;;;1.00;0.90;;;27.00;63.70;;;;;;5014302;28;20440;-94
2022/05/24 13:17:58;;;;;;;1.10;0.80;;;27.10;63.80;;;;;;5021629;28;20439;-91
2022/05/24 13:23:00;;;;;;;1.30;0.90;;;27.00;63.60;;;;;;5061973;23;20481;-90
2022/05/24 13:25:30;;;;;;;3.07;0.83;;;27.10;63.60;;;;;;5053779;28;20202;-90
2022/05/24 13:28:00;;;;;;;1.10;0.87;;;27.10;63.60;;;;;;5060263;28;20441;-93
2022/05/24 13:33:35;;;;;;;2.50;0.93;;;27.10;63.40;;;;;;5054768;28;20433;-93
2022/05/24 13:36:18;;;;;;;1.10;0.80;;;27.10;63.40;;;;;;5056294;28;20432;-89
2022/05/24 13:38:47;;;;;;;1.20;0.80;;;27.10;63.40;;;;;;5057500;28;20474;-91
2022/05/24 13:41:29;;;;;;;1.00;0.87;;;27.10;63.30;;;;;;5059296;28;20520;-92
2022/05/24 13:44:22;;;;;;;0.90;0.70;;;27.10;63.30;;;;;;5040435;28;20533;-94
2022/05/24 13:46:52;;;;;;;1.00;0.77;;;27.10;63.20;;;;;;5057231;28;20456;-89
2022/05/24 13:49:37;;;;;;;1.10;0.90;;;27.10;63.20;;;;;;5056989;28;20480;-89
2022/05/24 13:52:20;;;;;;;1.37;0.80;;;27.10;63.10;;;;;;5039400;28;20446;-89
2022/05/24 13:54:49;;;;;;;1.00;0.77;;;27.10;63.10;;;;;;5056752;28;20467;-88
2022/05/24 13:57:21;;;;;;;1.00;0.80;;;27.10;63.10;;;;;;5056275;28;20468;-81
2022/05/24 14:00:00;;;;;;;1.00;0.83;;;27.10;63.90;;;;;;5056462;28;20448;-81
2022/05/24 14:02:28;;;;;;;4.43;1.00;;;27.10;62.70;;;;;;5055803;28;20576;-81
2022/05/24 14:04:56;;;;;;;1.63;1.03;;;27.10;62.60;;;;;;5072490;28;20445;-81
2022/05/24 14:07:23;;;;;;;2.13;1.10;;;27.10;62.50;;;;;;5075586;28;20451;-81
2022/05/24 14:09:50;;;;;;;2.10;0.97;;;27.00;62.40;;;;;;5075484;28;20800;-81
2022/05/24 14:12:18;;;;;;;1.40;0.77;;;27.10;62.30;;;;;;5075611;28;20955;-81
2022/05/24 14:14:46;;;;;;;1.30;0.80;;;27.10;62.10;;;;;;5076092;28;20452;-81
2022/05/24 14:17:14;;;;;;;1.83;0.80;;;27.00;62.10;;;;;;5076310;28;20543;-81
2022/05/24 14:19:41;;;;;;;1.10;0.90;;;27.00;62.10;;;;;;5076217;28;20443;-81